Hlavní strana
METAR-TAF:

METAR-TAF

Letiště :

Bad Vöslau, Rakousko

zeměpisná šířka: 47-57-52N, zeměpisná délka: 016-15-34E, výška: 233 m

Aktuální stav počasí

Zpráva byla vytvořena před 20 minutami, v 10:00 UTC
Východní vítr 10 kt
Teplota 28°C
Vlhkost vzduchu 35%
Tlak

METAR: LOAV 181000Z 09010KT 40KM SCT050CU 28/11

Čas: 12:20 (10:20 UTC)

Předpověď počasí

Zpráva byla vytvořena před 2 hodinami a 20 minutami, v 08:00 UTC
Předpověď platná od 18 v 09 UTC do 18 v 18 UTC
vítr z různých směrů 2 kt
Viditelnost 10 km a více
Skoro jasno ve výšce 5000 ft

TAF: LOAV 180800Z 1809/1818 VRB02KT 9999 FEW050

Stav a předpovědi počasí z více než 4 000 letišť (zprávy METAR a TAF).

Červené a žluté tečky na mapě představují dostupné meteorologické stanice.

Když kurzor umístíte na tečku, zobrazí se název stanice.

Pak kliknutím zobrazíte stav a předpověď počasí.

Chcete-li změnit mapu, kliknutím na zelené tlačítko se znaménkem +mapu přiblížíte, kliknutím na zelené tlačítko se znaménkem – mapu oddálíte a kliknutím na zelené šipky přejdete na sousední mapy.


METAR-TAF: